createdAt,value
2019-01-26T00:01:29.788Z,43.27
2019-01-26T00:04:17.349Z,46.20
2019-01-26T00:07:04.910Z,52.13
2019-01-26T00:12:47.815Z,51.33
2019-01-26T00:21:07.951Z,62.37
2019-01-26T00:23:55.501Z,58.87
2019-01-26T00:26:43.080Z,64.80
2019-01-26T00:29:30.631Z,61.53
2019-01-26T00:32:18.248Z,59.53
2019-01-26T00:35:05.853Z,78.00
2019-01-26T00:37:53.495Z,73.43
2019-01-26T00:40:41.201Z,87.10
2019-01-26T00:43:12.227Z,94.60
2019-01-26T00:45:59.790Z,131.33
2019-01-26T00:48:28.884Z,123.07
2019-01-26T02:09:14.821Z,255.23
2019-01-26T02:12:02.575Z,259.73
2019-01-26T02:14:50.155Z,241.07
2019-01-26T02:17:37.710Z,247.60
2019-01-26T02:20:25.285Z,226.00
2019-01-26T02:23:12.879Z,197.03
2019-01-26T02:26:00.477Z,209.90
2019-01-26T02:31:37.302Z,219.80
2019-01-26T02:34:24.859Z,185.37
2019-01-26T02:37:12.429Z,201.73
2019-01-26T02:40:00.033Z,232.73
2019-01-26T02:42:47.592Z,246.93
2019-01-26T02:45:16.325Z,216.17
2019-01-26T02:48:04.062Z,241.20
2019-01-26T02:50:51.597Z,285.60
2019-01-26T02:53:39.157Z,321.27
2019-01-26T02:56:26.704Z,339.47
2019-01-26T02:59:14.343Z,321.30
2019-01-26T03:02:01.913Z,329.27
2019-01-26T03:04:30.335Z,343.77
2019-01-26T03:07:17.887Z,272.37
2019-01-26T03:10:05.463Z,362.73
2019-01-26T03:21:46.020Z,338.23
2019-01-26T03:24:33.575Z,338.63
2019-01-26T03:27:21.143Z,349.37
2019-01-26T03:30:08.732Z,369.90
2019-01-26T03:32:56.288Z,338.23
2019-01-26T03:35:43.847Z,347.90
2019-01-26T03:38:31.416Z,366.73
2019-01-26T03:41:18.980Z,377.07
2019-01-26T03:44:06.609Z,338.07
2019-01-26T03:46:54.152Z,400.60
2019-01-26T03:49:41.730Z,370.40
2019-01-26T03:52:29.287Z,381.20
2019-01-26T03:55:16.889Z,372.47
2019-01-26T03:58:04.488Z,367.53
2019-01-26T04:00:52.049Z,404.67
2019-01-26T04:03:39.598Z,407.80
2019-01-26T04:06:27.239Z,362.30
2019-01-26T04:09:14.784Z,396.23
2019-01-26T04:12:02.362Z,352.90
2019-01-26T04:14:50.235Z,390.73
2019-01-26T04:20:31.152Z,371.33
2019-01-26T05:19:53.864Z,421.90
2019-01-26T05:22:41.435Z,451.83
2019-01-26T05:25:10.100Z,432.43
2019-01-26T05:27:57.650Z,436.80
2019-01-26T05:30:45.232Z,424.10
2019-01-26T05:33:32.795Z,414.90
2019-01-26T05:36:20.380Z,384.03
2019-01-26T05:39:07.975Z,389.13
2019-01-26T05:41:55.570Z,423.00
2019-01-26T05:44:43.196Z,388.60
2019-01-26T05:47:30.843Z,413.43
2019-01-26T05:50:18.418Z,432.33
2019-01-26T05:53:05.993Z,392.17
2019-01-26T05:55:53.650Z,383.57
2019-01-26T05:58:41.353Z,422.57
2019-01-26T06:01:28.965Z,396.47
2019-01-26T06:04:16.556Z,372.70
2019-01-26T06:09:46.907Z,361.70
2019-01-26T06:12:34.460Z,387.40
2019-01-26T06:15:22.031Z,339.83
2019-01-26T06:18:09.596Z,355.30
2019-01-26T06:23:53.162Z,341.10
2019-01-26T06:26:40.724Z,339.00
2019-01-26T06:29:28.477Z,351.67
2019-01-26T06:32:16.806Z,298.13
2019-01-26T06:35:04.486Z,294.27
2019-01-26T06:37:52.092Z,285.63
2019-01-26T06:40:39.680Z,297.67
2019-01-26T06:43:27.264Z,310.70
2019-01-26T06:46:14.873Z,249.00
2019-01-26T06:49:02.556Z,275.57
2019-01-26T06:54:46.304Z,269.37
2019-01-26T06:57:15.201Z,281.53
2019-01-26T06:59:43.656Z,270.90
2019-01-26T07:02:12.221Z,263.57
2019-01-26T07:05:05.587Z,270.17
2019-01-26T07:07:34.096Z,255.23
2019-01-26T07:10:03.388Z,244.47
2019-01-26T07:12:31.918Z,237.73
2019-01-26T07:15:00.782Z,260.13
2019-01-26T07:17:29.415Z,248.17
2019-01-26T07:19:57.856Z,227.33
2019-01-26T07:22:26.403Z,242.83
2019-01-26T07:24:55.275Z,266.97
2019-01-26T07:27:23.726Z,237.40
2019-01-26T07:29:52.194Z,218.17
2019-01-26T07:32:20.620Z,231.77
2019-01-26T07:34:49.264Z,234.40
2019-01-26T07:37:17.703Z,225.70
2019-01-26T07:39:51.891Z,245.13
2019-01-26T07:42:20.515Z,257.00
2019-01-26T07:44:48.936Z,220.37
2019-01-26T07:47:17.298Z,224.40
2019-01-26T07:49:45.904Z,231.23
2019-01-26T07:52:14.512Z,206.13
2019-01-26T07:54:43.084Z,216.67
2019-01-26T07:57:12.011Z,216.37
2019-01-26T07:59:40.435Z,204.80
2019-01-26T08:02:10.015Z,219.80
2019-01-26T08:04:38.547Z,192.77
2019-01-26T08:07:07.011Z,209.10
2019-01-26T08:09:35.526Z,213.13
2019-01-26T08:12:04.060Z,221.80
2019-01-26T08:14:32.495Z,219.33
2019-01-26T08:17:02.609Z,223.63
2019-01-26T08:19:30.991Z,219.70
2019-01-26T08:21:59.458Z,208.70
2019-01-26T08:24:28.017Z,220.80
2019-01-26T08:26:56.759Z,182.10
2019-01-26T08:29:28.631Z,193.43
2019-01-26T08:31:57.094Z,178.37
2019-01-26T08:34:25.488Z,160.93
2019-01-26T08:36:54.135Z,163.33
2019-01-26T08:39:22.542Z,167.90
2019-01-26T08:41:51.028Z,163.70
2019-01-26T08:44:19.500Z,178.07
2019-01-26T08:46:47.917Z,165.77
2019-01-26T08:49:16.359Z,156.77
2019-01-26T08:51:44.909Z,173.40
2019-01-26T08:54:13.638Z,164.20
2019-01-26T08:56:42.189Z,169.63
2019-01-26T08:59:10.982Z,178.13
2019-01-26T09:01:39.425Z,158.27
2019-01-26T09:04:17.755Z,186.87
2019-01-26T09:06:53.580Z,174.13
2019-01-26T09:09:22.114Z,172.17
2019-01-26T09:11:50.719Z,169.37
2019-01-26T09:14:21.447Z,182.30
2019-01-26T09:16:49.913Z,183.57
2019-01-26T09:19:18.399Z,183.23
2019-01-26T09:21:47.330Z,168.97
2019-01-26T09:24:16.520Z,153.10
2019-01-26T09:26:45.429Z,146.97
2019-01-26T09:29:14.071Z,143.07
2019-01-26T09:31:42.841Z,134.97
2019-01-26T09:34:11.319Z,145.77
2019-01-26T09:36:40.247Z,122.60
2019-01-26T09:39:09.744Z,132.83
2019-01-26T09:41:38.563Z,129.70
2019-01-26T09:44:07.613Z,112.73
2019-01-26T09:46:36.255Z,123.03
2019-01-26T09:49:05.455Z,116.27
2019-01-26T09:51:35.579Z,119.83
2019-01-26T09:54:21.173Z,99.67
2019-01-26T09:56:48.555Z,92.50
2019-01-26T09:59:25.205Z,93.60
2019-01-26T10:01:53.936Z,79.20
2019-01-26T10:04:23.415Z,93.87
2019-01-26T10:06:54.224Z,99.50
2019-01-26T10:09:22.665Z,98.43
2019-01-26T10:11:51.121Z,112.20
2019-01-26T10:14:19.551Z,101.67
2019-01-26T10:16:48.150Z,97.73
2019-01-26T10:19:16.562Z,113.73
2019-01-26T10:21:44.996Z,95.93
2019-01-26T10:24:13.343Z,95.53
2019-01-26T10:26:41.695Z,99.97
2019-01-26T10:29:10.133Z,102.77
2019-01-26T10:31:38.598Z,103.13
2019-01-26T10:34:07.063Z,119.57
2019-01-26T10:36:51.864Z,143.17
2019-01-26T10:39:20.919Z,136.00
2019-01-26T10:42:03.843Z,118.30
2019-01-26T10:44:33.304Z,149.27
2019-01-26T10:47:01.739Z,155.23
2019-01-26T10:49:30.192Z,154.40
2019-01-26T10:51:58.708Z,191.43
2019-01-26T10:54:27.184Z,210.97
2019-01-26T10:56:55.591Z,200.13
2019-01-26T10:59:24.082Z,200.10
2019-01-26T11:01:52.523Z,227.37
2019-01-26T11:04:20.917Z,200.83
2019-01-26T11:06:49.372Z,218.30
2019-01-26T11:09:17.747Z,219.60
2019-01-26T11:11:46.204Z,235.77
2019-01-26T11:14:14.564Z,204.33
2019-01-26T11:16:43.051Z,197.57
2019-01-26T11:19:11.502Z,180.43
2019-01-26T11:21:39.865Z,190.27
2019-01-26T11:24:08.243Z,196.57
2019-01-26T11:26:36.720Z,206.77
2019-01-26T11:29:05.316Z,202.67
2019-01-26T11:31:34.155Z,182.77
2019-01-26T11:34:05.729Z,177.63
2019-01-26T11:36:34.196Z,172.27
2019-01-26T11:39:03.441Z,155.83
2019-01-26T11:41:31.791Z,151.40
2019-01-26T11:44:00.262Z,147.23
2019-01-26T11:46:57.168Z,144.63
2019-01-26T11:49:25.707Z,141.83
2019-01-26T11:52:13.289Z,123.57
2019-01-26T11:55:10.515Z,122.00
2019-01-26T11:57:39.654Z,107.37
2019-01-26T12:00:38.504Z,116.40
2019-01-26T12:03:19.828Z,103.07
2019-01-26T12:05:52.963Z,95.27
2019-01-26T12:08:21.384Z,103.73
2019-01-26T12:10:49.846Z,103.07
2019-01-26T12:13:18.465Z,109.93
2019-01-26T12:15:46.886Z,105.83
2019-01-26T12:18:15.335Z,105.50
2019-01-26T12:20:43.679Z,122.97
2019-01-26T12:23:12.111Z,117.13
2019-01-26T12:25:40.575Z,122.23
2019-01-26T12:28:08.995Z,121.17
2019-01-26T12:30:37.445Z,118.27
2019-01-26T12:33:05.896Z,133.53
2019-01-26T12:35:36.299Z,121.23
2019-01-26T12:38:04.783Z,126.50
2019-01-26T12:40:33.274Z,105.60
2019-01-26T12:43:01.684Z,90.80
2019-01-26T12:45:30.204Z,88.33
2019-01-26T12:47:58.615Z,79.53
2019-01-26T12:50:27.067Z,82.27
2019-01-26T12:52:55.483Z,80.80
2019-01-26T12:55:23.919Z,89.50
2019-01-26T12:57:52.953Z,80.77
2019-01-26T13:00:21.441Z,79.23
2019-01-26T13:02:49.887Z,80.87
2019-01-26T13:05:18.323Z,79.30
2019-01-26T13:07:46.743Z,73.27
2019-01-26T13:10:19.959Z,75.03
2019-01-26T13:12:48.384Z,85.83
2019-01-26T13:15:16.807Z,77.23
2019-01-26T13:17:45.256Z,76.23
2019-01-26T13:20:14.059Z,67.20
2019-01-26T13:22:42.485Z,59.57
2019-01-26T13:25:11.623Z,61.50
2019-01-26T13:27:40.060Z,66.83
2019-01-26T13:30:10.500Z,56.93
2019-01-26T13:32:38.973Z,60.00
2019-01-26T13:35:07.404Z,52.10
2019-01-26T13:37:35.835Z,48.03
2019-01-26T13:40:05.162Z,48.10
2019-01-26T13:42:33.507Z,45.10
2019-01-26T13:45:01.949Z,38.87
2019-01-26T13:47:30.407Z,34.40
2019-01-26T13:49:58.844Z,33.20
2019-01-26T13:52:27.283Z,31.43
2019-01-26T13:54:55.757Z,35.17
2019-01-26T13:57:24.204Z,29.80
2019-01-26T13:59:52.612Z,36.53
2019-01-26T14:02:21.056Z,35.87
2019-01-26T14:04:49.475Z,36.57
2019-01-26T14:07:17.907Z,38.60
2019-01-26T14:09:46.284Z,39.40
2019-01-26T14:12:14.717Z,41.47
2019-01-26T14:14:43.142Z,41.70
2019-01-26T14:17:11.835Z,35.60
2019-01-26T14:19:40.295Z,40.70
2019-01-26T14:22:08.719Z,41.93
2019-01-26T14:24:37.180Z,32.90
2019-01-26T14:27:05.596Z,40.17
2019-01-26T14:29:33.968Z,36.87
2019-01-26T14:32:02.632Z,34.10
2019-01-26T14:34:31.070Z,33.60
2019-01-26T14:36:59.498Z,34.57
2019-01-26T14:39:27.904Z,33.73
2019-01-26T14:41:57.518Z,29.30
2019-01-26T14:44:25.946Z,27.40
2019-01-26T14:46:54.404Z,28.30
2019-01-26T14:49:22.755Z,26.70
2019-01-26T14:51:51.108Z,27.10
2019-01-26T14:54:19.561Z,22.73
2019-01-26T14:56:47.997Z,20.23
2019-01-26T14:59:16.508Z,20.40
2019-01-26T15:01:44.950Z,19.83
2019-01-26T15:04:13.400Z,22.27
2019-01-26T15:06:41.757Z,21.43
2019-01-26T15:09:10.199Z,16.77
2019-01-26T15:11:38.623Z,20.87
2019-01-26T15:14:08.160Z,24.23
2019-01-26T15:16:36.667Z,20.13
2019-01-26T15:19:05.103Z,20.30
2019-01-26T15:21:33.545Z,22.37
2019-01-26T15:24:01.924Z,26.17
2019-01-26T15:26:30.292Z,21.83
2019-01-26T15:28:58.664Z,28.77
2019-01-26T15:31:27.128Z,25.20
2019-01-26T15:33:55.631Z,27.70
2019-01-26T15:36:24.051Z,23.30
2019-01-26T15:38:53.123Z,22.77
2019-01-26T15:41:23.719Z,25.03
2019-01-26T15:43:54.275Z,24.73
2019-01-26T15:46:23.696Z,20.70
2019-01-26T15:48:52.162Z,25.27
2019-01-26T15:51:22.815Z,24.57
2019-01-26T15:53:51.299Z,21.27
2019-01-26T15:56:19.807Z,22.97
2019-01-26T15:58:48.320Z,19.73
2019-01-26T16:01:16.838Z,24.63
2019-01-26T16:03:45.290Z,23.80
2019-01-26T16:06:13.823Z,27.27
2019-01-26T16:08:43.441Z,20.20
2019-01-26T16:11:12.419Z,18.83
2019-01-26T16:13:40.871Z,19.20
2019-01-26T16:16:09.344Z,18.40
2019-01-26T16:18:37.992Z,17.80
2019-01-26T16:21:06.419Z,21.37
2019-01-26T16:23:34.856Z,20.73
2019-01-26T16:26:03.298Z,20.10
2019-01-26T16:28:31.897Z,18.13
2019-01-26T16:31:00.463Z,18.70
2019-01-26T16:33:28.908Z,23.47
2019-01-26T16:35:57.375Z,17.73
2019-01-26T16:38:25.846Z,16.63
2019-01-26T16:40:54.267Z,21.87
2019-01-26T16:43:22.772Z,19.97
2019-01-26T16:45:51.240Z,22.10
2019-01-26T16:48:19.656Z,24.83
2019-01-26T16:50:48.487Z,29.07
2019-01-26T16:53:16.896Z,30.37
2019-01-26T16:55:45.354Z,30.13
2019-01-26T16:58:13.782Z,25.47
2019-01-26T17:00:43.567Z,26.07
2019-01-26T17:03:12.115Z,29.77
2019-01-26T17:05:40.536Z,32.47
2019-01-26T17:08:09.532Z,27.70
2019-01-26T17:10:37.995Z,33.67
2019-01-26T17:13:06.428Z,32.90
2019-01-26T17:15:34.971Z,28.40
2019-01-26T17:18:03.712Z,31.47
2019-01-26T17:20:35.153Z,31.33
2019-01-26T17:23:03.913Z,30.67
2019-01-26T17:25:32.422Z,31.27
2019-01-26T17:28:00.874Z,31.93
2019-01-26T17:30:30.445Z,37.70
2019-01-26T17:33:07.285Z,31.20
2019-01-26T17:35:33.375Z,28.53
2019-01-26T17:38:01.811Z,26.10
2019-01-26T17:40:32.573Z,26.80
2019-01-26T17:43:07.082Z,26.17
2019-01-26T17:45:35.516Z,27.40
2019-01-26T17:48:04.329Z,27.47
2019-01-26T17:50:32.999Z,25.87
2019-01-26T17:53:01.352Z,26.73
2019-01-26T17:55:29.938Z,28.13
2019-01-26T17:57:58.440Z,25.63
2019-01-26T18:00:32.064Z,28.47
2019-01-26T18:03:00.631Z,27.70
2019-01-26T18:05:29.214Z,27.13
2019-01-26T18:07:57.681Z,29.10
2019-01-26T18:10:26.147Z,26.70
2019-01-26T18:12:55.131Z,27.57
2019-01-26T18:15:24.160Z,24.53
2019-01-26T18:17:52.736Z,29.40
2019-01-26T18:20:22.140Z,29.10
2019-01-26T18:22:50.651Z,29.40
2019-01-26T18:25:19.254Z,25.57
2019-01-26T18:27:48.818Z,27.47
2019-01-26T18:30:19.176Z,28.03
2019-01-26T18:32:47.855Z,30.90
2019-01-26T18:35:16.487Z,24.43
2019-01-26T18:37:45.075Z,24.33
2019-01-26T18:40:15.093Z,28.10
2019-01-26T18:42:43.614Z,24.13
2019-01-26T18:45:12.776Z,25.90
2019-01-26T18:47:43.496Z,21.00
2019-01-26T18:50:13.435Z,22.10
2019-01-26T18:52:41.952Z,20.27
2019-01-26T18:55:10.443Z,19.33
2019-01-26T18:57:39.004Z,22.45
2019-01-26T19:00:10.363Z,19.50
2019-01-26T19:02:38.855Z,22.53
2019-01-26T19:05:15.139Z,17.83
2019-01-26T19:07:43.559Z,18.93
2019-01-26T19:10:12.615Z,20.57
2019-01-26T19:12:41.933Z,20.23
2019-01-26T19:15:12.236Z,18.83
2019-01-26T19:17:40.801Z,20.43
2019-01-26T19:20:09.921Z,17.50
2019-01-26T19:22:39.007Z,17.60
2019-01-26T19:25:08.731Z,18.47
2019-01-26T19:27:37.243Z,16.80
2019-01-26T19:30:05.981Z,17.37
2019-01-26T19:32:34.577Z,19.33
2019-01-26T19:35:03.081Z,17.40
2019-01-26T19:37:31.520Z,16.83
2019-01-26T19:39:59.948Z,16.60
2019-01-26T19:42:28.408Z,19.87
2019-01-26T19:44:56.828Z,17.67
2019-01-26T19:47:27.335Z,18.37
2019-01-26T19:49:55.818Z,18.00
2019-01-26T19:52:24.275Z,20.03
2019-01-26T19:54:52.615Z,16.20
2019-01-26T19:57:21.103Z,17.00
2019-01-26T19:59:49.647Z,17.23
2019-01-26T20:02:18.075Z,18.10
2019-01-26T20:04:46.717Z,19.63
2019-01-26T20:07:15.151Z,19.47
2019-01-26T20:09:43.530Z,20.17
2019-01-26T20:12:11.987Z,18.23
2019-01-26T20:14:40.466Z,20.03
2019-01-26T20:17:08.984Z,18.77
2019-01-26T20:19:37.421Z,16.97
2019-01-26T20:22:06.021Z,17.70
2019-01-26T20:24:34.376Z,18.27
2019-01-26T20:27:02.923Z,20.33
2019-01-26T20:29:31.379Z,17.30
2019-01-26T20:31:59.832Z,16.20
2019-01-26T20:34:30.754Z,16.53
2019-01-26T20:36:59.331Z,18.17
2019-01-26T20:39:27.879Z,14.90
2019-01-26T20:41:56.247Z,14.10
2019-01-26T20:44:24.659Z,16.73
2019-01-26T20:46:53.352Z,14.40
2019-01-26T20:49:21.827Z,12.67
2019-01-26T20:51:52.407Z,14.60
2019-01-26T20:54:20.864Z,12.73
2019-01-26T20:56:49.422Z,13.40
2019-01-26T20:59:17.931Z,14.90
2019-01-26T21:01:46.384Z,13.67
2019-01-26T21:04:14.823Z,13.30
2019-01-26T21:06:43.259Z,15.60
2019-01-26T21:09:11.757Z,13.97
2019-01-26T21:11:40.175Z,12.57
2019-01-26T21:14:08.664Z,10.70
2019-01-26T21:16:37.111Z,9.97
2019-01-26T21:19:05.674Z,9.57
2019-01-26T21:21:34.026Z,9.73
2019-01-26T21:24:02.606Z,10.53
2019-01-26T21:26:31.130Z,9.97
2019-01-26T21:28:59.641Z,9.43
2019-01-26T21:31:30.100Z,11.57
2019-01-26T21:33:58.580Z,11.03
2019-01-26T21:36:27.136Z,9.60
2019-01-26T21:38:55.733Z,7.87
2019-01-26T21:41:24.242Z,9.57
2019-01-26T21:43:52.810Z,8.03
2019-01-26T21:46:21.295Z,9.33
2019-01-26T21:48:49.763Z,8.47
2019-01-26T21:51:18.229Z,8.37
2019-01-26T21:53:46.764Z,8.40
2019-01-26T21:56:15.366Z,8.47
2019-01-26T21:58:43.855Z,8.38
2019-01-26T22:01:12.364Z,7.97
2019-01-26T22:03:40.781Z,7.70
2019-01-26T22:06:09.375Z,6.60
2019-01-26T22:08:37.863Z,7.27
2019-01-26T22:11:06.569Z,7.90
2019-01-26T22:13:35.083Z,7.63
2019-01-26T22:16:03.571Z,6.50
2019-01-26T22:18:32.095Z,8.10
2019-01-26T22:21:00.681Z,6.10
2019-01-26T22:23:29.215Z,6.00
2019-01-26T22:25:57.643Z,6.20
2019-01-26T22:28:26.111Z,7.73
2019-01-26T22:30:54.678Z,5.87
2019-01-26T22:33:23.163Z,5.43
2019-01-26T22:35:51.542Z,5.50
2019-01-26T22:38:19.884Z,5.33
2019-01-26T22:40:48.309Z,5.17
2019-01-26T22:43:16.827Z,5.90
2019-01-26T22:45:45.396Z,5.60
2019-01-26T22:48:13.845Z,3.50
2019-01-26T22:50:42.276Z,3.93
2019-01-26T22:53:10.674Z,3.70
2019-01-26T22:55:39.074Z,4.77
2019-01-26T22:58:08.073Z,3.80
2019-01-26T23:00:57.089Z,4.10
2019-01-26T23:03:28.200Z,3.93
2019-01-26T23:06:22.110Z,3.30
2019-01-26T23:08:50.627Z,3.43
2019-01-26T23:11:38.640Z,3.40
2019-01-26T23:14:12.706Z,3.73
2019-01-26T23:17:03.336Z,5.27
2019-01-26T23:19:40.615Z,6.57
2019-01-26T23:22:34.307Z,4.80
2019-01-26T23:25:12.401Z,4.50
2019-01-26T23:27:56.716Z,4.10
2019-01-26T23:30:40.065Z,5.90
2019-01-26T23:33:08.466Z,6.20
2019-01-26T23:35:36.816Z,3.27
2019-01-26T23:38:05.271Z,3.50
2019-01-26T23:40:33.697Z,3.13
2019-01-26T23:43:02.196Z,2.77
2019-01-26T23:45:30.619Z,3.57
2019-01-26T23:47:59.146Z,3.10
2019-01-26T23:50:27.572Z,3.20
2019-01-26T23:52:56.043Z,3.70
2019-01-26T23:55:24.426Z,2.70
2019-01-26T23:57:52.868Z,3.33
